Time;durP1;ratioP1;P1;durP2;ratioP2;P2;SDS_P1;SDS_P2;PMS_P1;PMS_P2;Temp;Humidity;BMP_temperature;BMP_pressure;BME280_temperature;BME280_humidity;BME280_pressure;Samples;Min_cycle;Max_cycle;Signal;HPM_P1;HPM_P2
2020/12/13 00:00:12;;;;;;;18.90;3.90;;;3.70;99.90;;;;;;5075467;28;20043;-48
2020/12/13 00:02:38;;;;;;;13.93;3.60;;;3.70;99.90;;;;;;5075342;28;20358;-48
2020/12/13 00:05:05;;;;;;;17.48;3.90;;;3.70;99.90;;;;;;5075636;28;20029;-48
2020/12/13 00:07:31;;;;;;;12.52;3.33;;;3.80;99.90;;;;;;5067472;28;20120;-48
2020/12/13 00:09:56;;;;;;;20.88;4.05;;;3.80;99.90;;;;;;5067472;28;20432;-47
2020/12/13 00:12:22;;;;;;;14.50;3.65;;;3.70;99.90;;;;;;5067420;28;20505;-48
2020/12/13 00:14:47;;;;;;;17.25;3.83;;;3.80;99.90;;;;;;5067434;28;20028;-51
2020/12/13 00:17:17;;;;;;;17.52;3.40;;;3.70;99.90;;;;;;5049412;28;20024;-48
2020/12/13 00:19:43;;;;;;;16.55;4.72;;;3.60;99.90;;;;;;5067633;28;20036;-47
2020/12/13 00:22:09;;;;;;;22.58;5.10;;;3.50;99.90;;;;;;5067201;28;20390;-47
2020/12/13 00:24:36;;;;;;;18.35;3.92;;;3.40;99.90;;;;;;5049320;28;20037;-47
2020/12/13 00:27:01;;;;;;;15.00;3.60;;;3.40;99.90;;;;;;5067612;28;20445;-49
2020/12/13 00:29:27;;;;;;;14.82;3.72;;;3.50;99.90;;;;;;5066944;28;20737;-48
2020/12/13 00:31:52;;;;;;;23.42;4.40;;;3.60;99.90;;;;;;5067636;28;20153;-49
2020/12/13 00:34:18;;;;;;;26.27;4.65;;;3.70;99.90;;;;;;5067463;28;20366;-48
2020/12/13 00:36:44;;;;;;;11.70;3.78;;;3.80;99.90;;;;;;5067650;28;20474;-47
2020/12/13 00:39:10;;;;;;;18.55;3.72;;;3.90;99.90;;;;;;5067073;28;20037;-48
2020/12/13 00:41:35;;;;;;;22.00;3.22;;;4.00;99.90;;;;;;5067211;28;20515;-48
2020/12/13 00:44:02;;;;;;;25.30;3.88;;;3.90;99.90;;;;;;5067735;28;20028;-48
2020/12/13 00:46:28;;;;;;;19.60;3.35;;;3.90;99.90;;;;;;5067018;28;20060;-52
2020/12/13 00:48:53;;;;;;;8.55;2.80;;;3.80;99.90;;;;;;5069458;28;20119;-48
2020/12/13 00:51:26;;;;;;;13.07;3.10;;;3.90;99.90;;;;;;5067074;28;20029;-49
2020/12/13 00:53:52;;;;;;;15.65;3.53;;;3.90;99.90;;;;;;5073174;28;20085;-48
2020/12/13 00:56:18;;;;;;;17.33;3.28;;;3.90;99.90;;;;;;5074126;28;20028;-48
2020/12/13 00:58:44;;;;;;;17.48;4.28;;;3.80;99.90;;;;;;5073743;28;20036;-48
2020/12/13 01:01:10;;;;;;;15.13;3.72;;;3.60;99.90;;;;;;5073657;28;20078;-47
2020/12/13 01:03:35;;;;;;;22.23;3.90;;;3.50;99.90;;;;;;5073941;28;20385;-51
2020/12/13 01:06:01;;;;;;;16.77;3.17;;;3.50;99.90;;;;;;5074027;28;20040;-48
2020/12/13 01:08:27;;;;;;;21.65;3.40;;;3.50;99.90;;;;;;5075805;28;20074;-47
2020/12/13 01:10:52;;;;;;;17.00;3.40;;;3.50;99.90;;;;;;5073416;28;20115;-48
2020/12/13 01:13:18;;;;;;;17.00;3.88;;;3.50;99.90;;;;;;5073499;28;20368;-48
2020/12/13 01:15:43;;;;;;;23.55;4.03;;;3.50;99.90;;;;;;5073518;28;20158;-48
2020/12/13 01:18:09;;;;;;;22.65;4.93;;;3.40;99.90;;;;;;5073055;28;20081;-47
2020/12/13 01:20:35;;;;;;;15.35;3.80;;;3.30;99.90;;;;;;5073297;28;20614;-47
2020/12/13 01:23:01;;;;;;;14.38;3.58;;;3.30;99.90;;;;;;5073568;28;20071;-47
2020/12/13 01:25:29;;;;;;;29.33;4.30;;;3.30;99.90;;;;;;5073316;28;20160;-47
2020/12/13 01:27:55;;;;;;;29.65;5.05;;;3.40;99.90;;;;;;5073483;28;20733;-47
2020/12/13 01:30:21;;;;;;;21.13;4.45;;;3.60;99.90;;;;;;5073329;28;20055;-47
2020/12/13 01:32:46;;;;;;;19.83;3.92;;;3.70;99.90;;;;;;5073368;28;20039;-48
2020/12/13 01:35:12;;;;;;;17.30;4.00;;;3.80;99.90;;;;;;5073680;28;20032;-47
2020/12/13 01:37:38;;;;;;;16.60;3.65;;;3.80;99.90;;;;;;5073383;28;20040;-47
2020/12/13 01:40:08;;;;;;;22.63;4.38;;;3.60;99.90;;;;;;5073479;28;20040;-49
2020/12/13 01:42:39;;;;;;;16.20;3.30;;;3.50;99.90;;;;;;5072972;28;20094;-48
2020/12/13 01:45:06;;;;;;;20.30;4.00;;;3.40;99.90;;;;;;5073244;28;20033;-47
2020/12/13 01:47:32;;;;;;;23.60;3.60;;;3.20;99.90;;;;;;5073393;28;20040;-47
2020/12/13 01:49:58;;;;;;;22.25;4.40;;;3.10;99.90;;;;;;5073425;28;20051;-48
2020/12/13 01:55:05;;;;;;;18.88;3.92;;;2.90;99.90;;;;;;5073348;28;20036;-46
2020/12/13 01:57:36;;;;;;;15.85;3.78;;;2.80;99.90;;;;;;5073337;28;20085;-46
2020/12/13 02:00:08;;;;;;;16.27;3.60;;;2.70;99.90;;;;;;5073471;28;20036;-48
2020/12/13 02:02:39;;;;;;;20.17;3.80;;;2.60;99.90;;;;;;5073125;28;20036;-48
2020/12/13 02:05:07;;;;;;;13.90;3.90;;;2.60;99.90;;;;;;5069062;28;20032;-48
2020/12/13 02:07:36;;;;;;;12.00;3.92;;;2.60;99.90;;;;;;5069293;28;20024;-49
2020/12/13 02:10:05;;;;;;;20.83;4.88;;;2.60;99.90;;;;;;5051092;28;20048;-51
2020/12/13 02:12:31;;;;;;;12.40;3.22;;;2.60;99.90;;;;;;5069352;28;20111;-48
2020/12/13 02:14:57;;;;;;;21.85;4.13;;;2.60;99.90;;;;;;5069791;28;20119;-48
2020/12/13 02:17:23;;;;;;;20.50;4.60;;;2.50;99.90;;;;;;5069734;28;20565;-47
2020/12/13 02:19:48;;;;;;;16.70;4.03;;;2.50;99.90;;;;;;5069799;28;20032;-49
2020/12/13 02:22:14;;;;;;;25.92;4.30;;;2.40;99.90;;;;;;5069433;28;20613;-47
2020/12/13 02:24:40;;;;;;;13.85;3.50;;;2.40;99.90;;;;;;5069842;28;20028;-49
2020/12/13 02:27:07;;;;;;;11.95;3.70;;;2.40;99.90;;;;;;5070075;28;20017;-48
2020/12/13 02:29:34;;;;;;;24.48;4.03;;;2.30;99.90;;;;;;5069332;28;20040;-47
2020/12/13 02:32:01;;;;;;;22.35;3.85;;;2.30;99.90;;;;;;5073893;28;20039;-47
2020/12/13 02:34:26;;;;;;;23.80;4.45;;;2.20;99.90;;;;;;5070564;28;20074;-48
2020/12/13 02:36:52;;;;;;;26.65;4.25;;;2.20;99.90;;;;;;5070340;28;20029;-50
2020/12/13 02:39:18;;;;;;;17.92;4.10;;;2.10;99.90;;;;;;5070096;28;20043;-48
2020/12/13 02:41:57;;;;;;;20.33;4.43;;;2.10;99.90;;;;;;5072659;28;20028;-47
2020/12/13 02:44:26;;;;;;;12.43;4.18;;;2.10;99.90;;;;;;5069853;28;20097;-47
2020/12/13 02:46:52;;;;;;;21.02;5.53;;;2.10;99.90;;;;;;5085211;28;20082;-47
2020/12/13 02:49:17;;;;;;;21.15;5.40;;;2.20;99.90;;;;;;5090430;28;20052;-48
2020/12/13 02:51:43;;;;;;;27.02;5.15;;;2.20;99.90;;;;;;5090898;28;20028;-47
2020/12/13 02:54:09;;;;;;;15.68;4.45;;;2.20;99.90;;;;;;5090290;28;20016;-48
2020/12/13 02:56:39;;;;;;;17.73;4.28;;;2.20;99.90;;;;;;5090856;28;20038;-48
2020/12/13 02:59:05;;;;;;;19.83;5.07;;;2.10;99.90;;;;;;5088869;28;20032;-47
2020/12/13 03:01:31;;;;;;;12.20;4.63;;;2.10;99.90;;;;;;5090795;28;20028;-48
2020/12/13 03:03:57;;;;;;;20.38;6.28;;;2.30;99.90;;;;;;5072271;28;20042;-47
2020/12/13 03:06:22;;;;;;;16.65;4.47;;;2.20;99.90;;;;;;5090646;28;20032;-49
2020/12/13 03:08:48;;;;;;;17.35;5.05;;;2.30;99.90;;;;;;5090401;28;20123;-48
2020/12/13 03:11:19;;;;;;;19.50;4.28;;;2.20;99.90;;;;;;5080805;28;20060;-48
2020/12/13 03:13:46;;;;;;;17.55;5.05;;;2.20;99.90;;;;;;5069869;28;20469;-48
2020/12/13 03:16:11;;;;;;;13.45;4.72;;;2.10;99.90;;;;;;5069713;28;20025;-47
2020/12/13 03:18:37;;;;;;;18.85;4.78;;;2.10;99.90;;;;;;5069630;28;20075;-48
2020/12/13 03:21:03;;;;;;;15.88;4.25;;;2.30;99.90;;;;;;5070114;28;20551;-47
2020/12/13 03:23:28;;;;;;;12.70;4.80;;;2.20;99.90;;;;;;5069668;28;20040;-48
2020/12/13 03:25:54;;;;;;;13.88;4.65;;;2.20;99.90;;;;;;5069984;28;20032;-48
2020/12/13 03:28:19;;;;;;;19.38;5.28;;;2.20;99.90;;;;;;5069737;28;20029;-48
2020/12/13 03:30:45;;;;;;;20.35;5.43;;;2.20;99.90;;;;;;5069575;28;20032;-47
2020/12/13 03:33:11;;;;;;;20.42;5.20;;;2.20;99.90;;;;;;5069778;28;20478;-47
2020/12/13 03:35:36;;;;;;;25.98;5.97;;;2.20;99.90;;;;;;5069744;28;20033;-49
2020/12/13 03:38:02;;;;;;;23.75;5.50;;;2.10;99.90;;;;;;5069673;28;20032;-49
2020/12/13 03:40:28;;;;;;;22.15;6.90;;;2.10;99.90;;;;;;5069472;28;20480;-47
2020/12/13 03:42:53;;;;;;;18.27;5.95;;;2.10;99.90;;;;;;5069452;28;20040;-47
2020/12/13 03:45:19;;;;;;;22.20;6.68;;;2.20;99.90;;;;;;5069735;28;20028;-47
2020/12/13 03:47:45;;;;;;;17.98;5.95;;;2.10;99.90;;;;;;5069101;28;20033;-47
2020/12/13 03:50:10;;;;;;;15.68;6.18;;;2.10;99.90;;;;;;5069271;28;20048;-47
2020/12/13 03:52:36;;;;;;;20.65;7.03;;;2.10;99.90;;;;;;5069357;28;20089;-47
2020/12/13 03:55:01;;;;;;;18.48;6.35;;;2.20;99.90;;;;;;5069329;28;20112;-48
2020/12/13 03:57:27;;;;;;;20.63;7.00;;;2.10;99.90;;;;;;5069460;28;20418;-47
2020/12/13 03:59:53;;;;;;;29.02;7.88;;;2.10;99.90;;;;;;5085697;28;20424;-47
2020/12/13 04:02:18;;;;;;;25.90;6.82;;;2.00;99.90;;;;;;5089542;28;20027;-48
2020/12/13 04:04:44;;;;;;;30.10;7.53;;;2.00;99.90;;;;;;5089276;28;20028;-49
2020/12/13 04:07:10;;;;;;;20.35;7.55;;;2.00;99.90;;;;;;5088923;28;20054;-47
2020/12/13 04:09:35;;;;;;;30.13;8.15;;;1.90;99.90;;;;;;5088787;28;20126;-47
2020/12/13 04:12:01;;;;;;;31.75;9.15;;;1.90;99.90;;;;;;5089196;28;20024;-48
2020/12/13 04:14:26;;;;;;;25.35;7.90;;;1.90;99.90;;;;;;5088959;28;20028;-48
2020/12/13 04:16:52;;;;;;;25.55;8.20;;;1.90;99.90;;;;;;5089284;28;20028;-48
2020/12/13 04:19:18;;;;;;;29.58;8.85;;;1.90;99.90;;;;;;5089101;28;20063;-48
2020/12/13 04:21:44;;;;;;;22.73;7.72;;;2.00;99.90;;;;;;5089231;28;20583;-48
2020/12/13 04:24:10;;;;;;;16.70;7.22;;;2.00;99.90;;;;;;5089033;28;20097;-48
2020/12/13 04:26:35;;;;;;;20.27;7.65;;;1.90;99.90;;;;;;5088762;28;20035;-47
2020/12/13 04:29:01;;;;;;;21.73;8.20;;;2.00;99.90;;;;;;5088494;28;20568;-46
2020/12/13 04:31:26;;;;;;;21.88;7.63;;;1.90;99.90;;;;;;5088684;28;20028;-49
2020/12/13 04:33:52;;;;;;;21.35;7.90;;;1.90;99.90;;;;;;5088877;28;20035;-48
2020/12/13 04:36:18;;;;;;;23.63;8.10;;;1.90;99.90;;;;;;5088924;28;20043;-50
2020/12/13 04:38:43;;;;;;;23.20;8.05;;;2.00;99.90;;;;;;5088843;28;20031;-49
2020/12/13 04:41:09;;;;;;;23.17;8.60;;;2.00;99.90;;;;;;5088772;28;20031;-48
2020/12/13 04:43:35;;;;;;;32.17;8.82;;;2.00;99.90;;;;;;5089154;28;20024;-49
2020/12/13 04:46:00;;;;;;;22.63;7.78;;;2.00;99.90;;;;;;5088910;28;20367;-47
2020/12/13 04:48:26;;;;;;;15.30;7.18;;;2.00;99.90;;;;;;5089115;28;20070;-49
2020/12/13 04:50:52;;;;;;;21.00;7.38;;;2.00;99.90;;;;;;5085593;28;20044;-49
2020/12/13 04:53:19;;;;;;;31.30;8.55;;;2.00;99.90;;;;;;5088952;28;20052;-48
2020/12/13 04:55:58;;;;;;;22.83;7.50;;;2.00;99.90;;;;;;5088608;28;20036;-47
2020/12/13 04:58:26;;;;;;;19.63;7.70;;;2.00;99.90;;;;;;5088503;28;20366;-48
2020/12/13 05:00:57;;;;;;;20.48;7.38;;;2.00;99.90;;;;;;5088676;28;20032;-48
2020/12/13 05:03:24;;;;;;;24.73;8.57;;;2.00;99.90;;;;;;5088611;28;20553;-50
2020/12/13 05:05:50;;;;;;;15.63;7.78;;;2.00;99.90;;;;;;5088585;28;20107;-47
2020/12/13 05:08:16;;;;;;;21.45;7.50;;;2.00;99.90;;;;;;5088592;28;20032;-48
2020/12/13 05:10:41;;;;;;;34.95;7.78;;;2.00;99.90;;;;;;5087052;28;20070;-49
2020/12/13 05:13:08;;;;;;;18.40;6.65;;;2.10;99.90;;;;;;5069945;28;20128;-49
2020/12/13 05:15:35;;;;;;;17.00;6.85;;;2.10;99.90;;;;;;5088819;28;20089;-49
2020/12/13 05:18:03;;;;;;;26.88;7.25;;;2.10;99.90;;;;;;5080898;28;20086;-49
2020/12/13 05:20:29;;;;;;;21.75;6.28;;;2.20;99.90;;;;;;5068373;28;20040;-49
2020/12/13 05:22:58;;;;;;;25.70;7.75;;;2.20;99.90;;;;;;5049589;28;20033;-47
2020/12/13 05:25:38;;;;;;;19.70;6.60;;;2.30;99.90;;;;;;5067391;28;20044;-48
2020/12/13 05:28:16;;;;;;;32.83;6.20;;;2.40;99.90;;;;;;5067657;28;20102;-47
2020/12/13 05:30:47;;;;;;;19.63;5.72;;;2.40;99.90;;;;;;5067579;28;20051;-49
2020/12/13 05:33:32;;;;;;;29.77;6.65;;;2.40;99.90;;;;;;5067609;28;20028;-48
2020/12/13 05:36:00;;;;;;;19.45;7.57;;;2.50;99.90;;;;;;5067730;28;20032;-48
2020/12/13 05:38:34;;;;;;;23.73;6.93;;;2.50;99.90;;;;;;5068624;28;20040;-49
2020/12/13 05:41:00;;;;;;;22.63;7.63;;;2.50;99.90;;;;;;5053488;28;20439;-46
2020/12/13 05:43:29;;;;;;;23.05;6.03;;;2.60;99.90;;;;;;5071448;28;20032;-49
2020/12/13 05:53:37;;;;;;;17.98;7.15;;;2.70;99.90;;;;;;5051776;28;20024;-48
2020/12/13 05:56:04;;;;;;;21.75;7.05;;;2.80;99.90;;;;;;5070338;28;20554;-48
2020/12/13 05:58:30;;;;;;;23.35;6.78;;;2.80;99.90;;;;;;5075329;28;20028;-52
2020/12/13 06:00:57;;;;;;;20.58;5.93;;;2.90;99.90;;;;;;5072210;28;20031;-51
2020/12/13 06:03:44;;;;;;;27.67;6.78;;;2.90;99.90;;;;;;5077835;28;20043;-48
2020/12/13 06:06:10;;;;;;;37.38;10.55;;;2.90;99.90;;;;;;5089344;28;20067;-49
2020/12/13 06:08:46;;;;;;;19.80;7.47;;;2.90;99.90;;;;;;5074278;28;20064;-48
2020/12/13 06:11:12;;;;;;;28.88;7.22;;;3.00;99.90;;;;;;5069327;28;20044;-49
2020/12/13 06:13:45;;;;;;;28.05;6.88;;;3.00;99.90;;;;;;5071939;28;20032;-48
2020/12/13 06:16:12;;;;;;;18.40;5.65;;;3.10;99.90;;;;;;5090108;28;20402;-47
2020/12/13 06:18:39;;;;;;;19.02;6.80;;;3.10;99.90;;;;;;5077735;28;20060;-46
2020/12/13 06:21:10;;;;;;;23.02;6.80;;;3.10;99.90;;;;;;5069568;28;20108;-48
2020/12/13 06:23:39;;;;;;;22.40;6.75;;;3.10;99.90;;;;;;5069226;28;20050;-47
2020/12/13 06:26:05;;;;;;;20.10;7.10;;;3.10;99.90;;;;;;5069683;28;20029;-46
2020/12/13 06:28:31;;;;;;;16.20;6.72;;;3.10;99.90;;;;;;5069703;28;20037;-47
2020/12/13 06:31:01;;;;;;;21.33;7.63;;;3.20;99.90;;;;;;5069319;28;20509;-49
2020/12/13 06:33:27;;;;;;;30.33;7.93;;;3.20;99.90;;;;;;5064196;28;20493;-48
2020/12/13 06:36:00;;;;;;;20.85;6.63;;;3.20;99.90;;;;;;5089788;28;20478;-48
2020/12/13 06:38:28;;;;;;;;;;;3.30;99.90;;;;;;5076550;28;20029;-51
2020/12/13 06:40:53;;;;;;;21.60;6.90;;;3.30;99.90;;;;;;5069486;28;19935;-49
2020/12/13 06:43:19;;;;;;;25.00;7.85;;;3.60;99.90;;;;;;5069080;28;20060;-50
2020/12/13 06:45:45;;;;;;;23.08;8.27;;;3.60;99.90;;;;;;5069712;28;20068;-47
2020/12/13 06:48:11;;;;;;;20.73;8.48;;;3.60;99.90;;;;;;5069283;28;20043;-49
2020/12/13 06:50:37;;;;;;;23.20;8.63;;;3.70;99.90;;;;;;5068597;28;20049;-52
2020/12/13 06:53:02;;;;;;;30.08;8.20;;;3.90;99.90;;;;;;5069031;28;20123;-50
2020/12/13 06:55:34;;;;;;;38.63;8.18;;;3.90;99.90;;;;;;5050823;28;20029;-49
2020/12/13 06:58:00;;;;;;;29.08;9.25;;;4.10;99.90;;;;;;5072109;28;20731;-51
2020/12/13 07:00:26;;;;;;;30.00;8.82;;;4.20;99.90;;;;;;5089391;28;20060;-49
2020/12/13 07:03:01;;;;;;;25.58;8.65;;;4.30;99.90;;;;;;5079327;28;20438;-49
2020/12/13 07:05:53;;;;;;;27.50;7.05;;;4.20;99.90;;;;;;5080592;28;20514;-50
2020/12/13 07:08:23;;;;;;;24.13;7.10;;;4.20;99.90;;;;;;5086024;28;20031;-48
2020/12/13 07:10:52;;;;;;;22.58;7.30;;;4.20;99.90;;;;;;5086657;28;20047;-49
2020/12/13 07:13:22;;;;;;;23.70;7.38;;;4.20;99.90;;;;;;5082260;28;20120;-48
2020/12/13 07:16:16;;;;;;;25.48;7.95;;;4.10;99.90;;;;;;5088692;28;20027;-48
2020/12/13 07:18:46;;;;;;;26.60;4.32;;;4.20;99.90;;;;;;5075000;28;20449;-48
2020/12/13 07:21:15;;;;;;;27.25;3.40;;;4.80;99.90;;;;;;5087697;28;20419;-49
2020/12/13 07:23:42;;;;;;;27.65;2.47;;;5.50;99.90;;;;;;5082606;28;20151;-50
2020/12/13 07:26:08;;;;;;;23.92;3.13;;;6.20;99.90;;;;;;5088073;28;20024;-50
2020/12/13 07:28:34;;;;;;;30.48;4.10;;;6.70;99.90;;;;;;5074485;28;20032;-49
2020/12/13 07:31:05;;;;;;;27.17;2.65;;;7.10;99.90;;;;;;5086716;28;20043;-48
2020/12/13 07:33:30;;;;;;;17.35;3.38;;;7.40;99.90;;;;;;5076490;28;20032;-46
2020/12/13 07:35:57;;;;;;;29.00;3.00;;;7.70;99.90;;;;;;5073729;28;20038;-48
2020/12/13 07:38:26;;;;;;;25.08;3.17;;;8.10;99.90;;;;;;5082364;28;20036;-47
2020/12/13 07:40:52;;;;;;;25.92;3.65;;;8.30;99.90;;;;;;5087459;28;20032;-48
2020/12/13 07:43:18;;;;;;;28.65;3.15;;;8.50;99.90;;;;;;5086022;28;20024;-48
2020/12/13 07:45:46;;;;;;;23.80;3.08;;;8.60;99.90;;;;;;5088239;28;20028;-50
2020/12/13 07:48:15;;;;;;;25.02;3.50;;;8.70;99.90;;;;;;5065964;28;20036;-48
2020/12/13 07:50:46;;;;;;;28.08;3.72;;;8.80;99.90;;;;;;5082474;28;20055;-48
2020/12/13 07:53:25;;;;;;;27.23;3.75;;;8.90;99.90;;;;;;5085795;28;20088;-48
2020/12/13 07:55:51;;;;;;;15.63;2.90;;;9.00;99.90;;;;;;5086500;28;20032;-49
2020/12/13 07:58:20;;;;;;;19.48;2.25;;;9.00;99.90;;;;;;5080702;28;20038;-47
2020/12/13 08:00:50;;;;;;;26.92;2.92;;;9.10;99.90;;;;;;5084441;28;20026;-47
2020/12/13 08:03:15;;;;;;;28.10;3.05;;;9.10;99.90;;;;;;5069265;28;20044;-45
2020/12/13 08:05:42;;;;;;;30.05;3.58;;;9.20;99.90;;;;;;5065915;28;20094;-47
2020/12/13 08:08:08;;;;;;;17.50;2.70;;;9.20;99.90;;;;;;5070263;28;20049;-49
2020/12/13 08:10:34;;;;;;;20.05;2.67;;;9.20;99.90;;;;;;5061277;28;20048;-49
2020/12/13 08:13:07;;;;;;;23.73;4.10;;;9.30;99.90;;;;;;5075828;28;20028;-49
2020/12/13 08:15:33;;;;;;;31.93;2.97;;;9.20;99.90;;;;;;5087301;28;20032;-46
2020/12/13 08:18:10;;;;;;;21.65;2.97;;;9.30;99.90;;;;;;5077837;28;20035;-50
2020/12/13 08:20:38;;;;;;;26.25;3.25;;;9.30;99.90;;;;;;5077201;28;20036;-47
2020/12/13 08:23:06;;;;;;;20.92;3.05;;;9.30;99.90;;;;;;5076296;28;20029;-47
2020/12/13 08:25:35;;;;;;;33.58;5.22;;;9.40;99.90;;;;;;5082563;28;20565;-48
2020/12/13 08:28:03;;;;;;;35.55;3.40;;;9.40;99.90;;;;;;5079315;28;20405;-46
2020/12/13 08:30:30;;;;;;;20.23;2.47;;;9.50;99.90;;;;;;5082701;28;20039;-47
2020/12/13 08:32:58;;;;;;;27.20;3.17;;;9.50;99.90;;;;;;5060386;28;20509;-46
2020/12/13 08:35:27;;;;;;;27.52;2.50;;;9.40;99.90;;;;;;5073521;28;20039;-48
2020/12/13 08:38:13;;;;;;;22.70;3.13;;;9.30;99.90;;;;;;5078503;28;20039;-47
2020/12/13 08:40:41;;;;;;;16.30;2.83;;;9.20;99.90;;;;;;5084669;28;20300;-48
2020/12/13 08:43:07;;;;;;;23.83;3.05;;;9.20;99.90;;;;;;5058558;28;20033;-49
2020/12/13 08:45:34;;;;;;;17.95;2.50;;;9.20;99.90;;;;;;5084269;28;20043;-48
2020/12/13 08:48:04;;;;;;;20.48;2.97;;;9.20;99.90;;;;;;5077708;28;20366;-45
2020/12/13 08:50:41;;;;;;;19.90;3.13;;;9.20;99.90;;;;;;5070543;28;20657;-48
2020/12/13 08:54:02;;;;;;;19.80;2.50;;;9.20;99.90;;;;;;5078494;28;20025;-47
2020/12/13 08:56:33;;;;;;;25.17;3.45;;;9.30;99.90;;;;;;5078248;28;20506;-47
2020/12/13 08:58:59;;;;;;;20.83;3.10;;;9.20;99.90;;;;;;5086762;28;20094;-47
2020/12/13 09:01:28;;;;;;;17.05;2.97;;;9.30;99.90;;;;;;5086788;28;20038;-47
2020/12/13 09:03:55;;;;;;;22.17;3.00;;;9.30;99.90;;;;;;5084671;28;20035;-50
2020/12/13 09:06:31;;;;;;;21.40;2.95;;;9.30;99.90;;;;;;5084732;28;20450;-49
2020/12/13 09:09:14;;;;;;;25.52;3.58;;;9.30;99.90;;;;;;5086211;28;20032;-52
2020/12/13 09:11:41;;;;;;;31.45;4.00;;;9.40;99.90;;;;;;5086777;28;20028;-48
2020/12/13 09:14:07;;;;;;;25.55;3.13;;;9.50;99.90;;;;;;5081890;28;20035;-47
2020/12/13 09:16:34;;;;;;;23.70;3.05;;;9.50;99.90;;;;;;5090737;28;20036;-50
2020/12/13 09:19:09;;;;;;;30.52;4.28;;;9.50;99.90;;;;;;5081470;28;20036;-49
2020/12/13 09:21:51;;;;;;;22.42;3.78;;;9.50;99.90;;;;;;5086820;28;20079;-48
2020/12/13 09:24:21;;;;;;;27.95;4.03;;;9.50;99.90;;;;;;5082594;28;20052;-51
2020/12/13 09:27:20;;;;;;;29.63;3.53;;;9.50;99.90;;;;;;5089242;28;20625;-49
2020/12/13 09:29:47;;;;;;;32.50;4.13;;;9.50;99.90;;;;;;5067913;28;20421;-49
2020/12/13 09:32:14;;;;;;;32.30;4.13;;;9.50;99.90;;;;;;5085627;28;20056;-49
2020/12/13 09:34:44;;;;;;;30.02;3.50;;;9.40;99.90;;;;;;5081045;28;20055;-47
2020/12/13 09:37:11;;;;;;;28.92;3.25;;;9.40;99.90;;;;;;5081456;28;20136;-47
2020/12/13 09:39:38;;;;;;;25.75;3.15;;;9.30;99.90;;;;;;5082078;28;20118;-48
2020/12/13 09:42:04;;;;;;;27.58;3.40;;;9.20;99.90;;;;;;5080461;28;20236;-48
2020/12/13 09:44:30;;;;;;;20.75;3.50;;;9.20;99.90;;;;;;5079012;28;20029;-48
2020/12/13 09:46:58;;;;;;;28.02;3.28;;;9.30;99.90;;;;;;5080929;28;20526;-48
2020/12/13 09:49:25;;;;;;;20.05;2.78;;;9.30;99.90;;;;;;5080178;28;20075;-48
2020/12/13 09:52:04;;;;;;;28.33;4.63;;;9.40;99.90;;;;;;5087763;28;20034;-49
2020/12/13 09:54:30;;;;;;;28.42;3.53;;;9.40;99.90;;;;;;5070921;28;20036;-50
2020/12/13 09:56:57;;;;;;;26.98;2.35;;;9.40;99.90;;;;;;5078141;28;20036;-50
2020/12/13 09:59:23;;;;;;;27.50;3.65;;;9.40;99.90;;;;;;5085788;28;20028;-48
2020/12/13 10:01:49;;;;;;;22.13;3.38;;;9.50;99.90;;;;;;5090011;28;20032;-50
2020/12/13 10:04:17;;;;;;;22.33;2.53;;;9.50;99.90;;;;;;5089824;28;20036;-49
2020/12/13 10:09:26;;;;;;;15.20;2.78;;;9.50;99.90;;;;;;5069549;28;20087;-50
2020/12/13 10:11:52;;;;;;;23.20;3.45;;;9.50;99.90;;;;;;5069671;28;20071;-48
2020/12/13 10:14:17;;;;;;;19.85;3.30;;;9.60;99.90;;;;;;5069029;28;20406;-50
2020/12/13 10:16:44;;;;;;;27.63;3.20;;;9.60;99.90;;;;;;5069734;28;20166;-50
2020/12/13 10:19:13;;;;;;;22.00;2.90;;;9.50;99.90;;;;;;5072013;28;20931;-50
2020/12/13 10:21:38;;;;;;;18.58;3.05;;;9.60;99.90;;;;;;5080901;28;20060;-49
2020/12/13 10:24:05;;;;;;;14.10;2.10;;;9.60;99.90;;;;;;5087404;28;20526;-48
2020/12/13 10:26:36;;;;;;;19.35;2.72;;;9.50;99.90;;;;;;5070073;28;20036;-49
2020/12/13 10:29:03;;;;;;;17.55;2.20;;;9.60;99.90;;;;;;5087817;28;20335;-47
2020/12/13 10:31:30;;;;;;;14.27;2.22;;;9.60;99.90;;;;;;5089169;28;20088;-47
2020/12/13 10:33:57;;;;;;;23.65;3.95;;;9.60;99.90;;;;;;5074810;28;20749;-49
2020/12/13 10:36:23;;;;;;;16.77;2.60;;;9.60;99.90;;;;;;5082754;28;20028;-48
2020/12/13 10:38:51;;;;;;;21.58;2.97;;;9.60;99.90;;;;;;5086144;28;20035;-50
2020/12/13 10:41:21;;;;;;;18.05;3.30;;;9.50;99.90;;;;;;5089104;28;20020;-49
2020/12/13 10:43:49;;;;;;;20.38;3.22;;;9.40;99.90;;;;;;5074216;28;20024;-48
2020/12/13 10:46:18;;;;;;;14.68;2.28;;;9.40;99.90;;;;;;5084244;28;20478;-50
2020/12/13 10:48:44;;;;;;;33.17;2.92;;;9.30;99.90;;;;;;5064589;28;20127;-49
2020/12/13 10:51:10;;;;;;;27.92;4.40;;;9.20;99.90;;;;;;5079875;28;20447;-49
2020/12/13 10:53:36;;;;;;;28.85;4.50;;;9.10;99.90;;;;;;5083635;28;20036;-50
2020/12/13 10:56:05;;;;;;;17.63;2.88;;;9.10;99.90;;;;;;5084925;28;20028;-49
2020/12/13 10:58:31;;;;;;;32.05;3.58;;;9.10;99.90;;;;;;5085010;28;20036;-50
2020/12/13 11:00:57;;;;;;;23.98;3.30;;;9.10;99.90;;;;;;5068163;28;20032;-48
2020/12/13 11:03:23;;;;;;;21.45;3.15;;;9.10;99.90;;;;;;5084623;28;20028;-49
2020/12/13 11:05:48;;;;;;;23.38;3.65;;;9.10;99.90;;;;;;5079305;28;20040;-50
2020/12/13 11:08:14;;;;;;;13.75;2.58;;;9.10;99.90;;;;;;5080758;28;20088;-49
2020/12/13 11:10:46;;;;;;;22.52;2.78;;;9.00;99.90;;;;;;5086451;28;20051;-51
2020/12/13 11:13:13;;;;;;;29.90;3.92;;;9.00;99.90;;;;;;5072486;28;20044;-49
2020/12/13 11:15:39;;;;;;;28.20;3.08;;;9.00;99.90;;;;;;5086879;28;20042;-50
2020/12/13 11:18:05;;;;;;;20.00;3.50;;;9.10;99.90;;;;;;5081290;28;20028;-49
2020/12/13 11:20:31;;;;;;;30.67;3.95;;;9.10;99.90;;;;;;5085005;28;20028;-50
2020/12/13 11:22:56;;;;;;;18.13;2.90;;;9.10;99.90;;;;;;5064131;28;20043;-50
2020/12/13 11:25:22;;;;;;;27.25;3.30;;;9.10;99.90;;;;;;5086638;28;20043;-49
2020/12/13 11:27:48;;;;;;;30.70;3.35;;;9.20;99.90;;;;;;5079300;28;20420;-49
2020/12/13 11:30:14;;;;;;;26.02;3.03;;;9.20;99.90;;;;;;5080657;28;20032;-48
2020/12/13 11:32:43;;;;;;;24.25;3.60;;;9.30;99.90;;;;;;5082790;28;20071;-49
2020/12/13 11:35:10;;;;;;;32.25;3.45;;;9.20;99.90;;;;;;5061388;28;20032;-51
2020/12/13 11:37:36;;;;;;;28.10;3.13;;;9.20;99.90;;;;;;5074546;28;20119;-48
2020/12/13 11:40:02;;;;;;;17.13;3.08;;;9.20;99.90;;;;;;5087545;28;20114;-50
2020/12/13 11:42:27;;;;;;;20.23;2.70;;;9.20;99.90;;;;;;5084837;28;20130;-51
2020/12/13 11:44:53;;;;;;;31.20;3.45;;;9.20;99.90;;;;;;5076284;28;20024;-50
2020/12/13 11:47:19;;;;;;;16.75;3.20;;;9.20;99.90;;;;;;5085002;28;20036;-47
2020/12/13 11:49:44;;;;;;;35.47;3.70;;;9.10;99.90;;;;;;5086242;28;20046;-47
2020/12/13 11:52:10;;;;;;;13.95;3.17;;;9.20;99.90;;;;;;5073797;28;20039;-49
2020/12/13 11:54:36;;;;;;;25.45;4.68;;;9.10;99.90;;;;;;5086539;28;20032;-49
2020/12/13 11:57:02;;;;;;;36.42;4.50;;;9.10;99.90;;;;;;5079254;28;20032;-48
2020/12/13 11:59:28;;;;;;;26.33;3.83;;;9.10;99.90;;;;;;5080001;28;20032;-49
2020/12/13 12:01:57;;;;;;;28.45;5.13;;;9.10;99.90;;;;;;5087387;28;20369;-52
2020/12/13 12:04:23;;;;;;;16.63;3.42;;;9.10;99.90;;;;;;5084225;28;20038;-49
2020/12/13 12:06:49;;;;;;;29.52;3.28;;;9.10;99.90;;;;;;5084987;28;20032;-49
2020/12/13 12:09:15;;;;;;;29.98;3.70;;;9.10;99.90;;;;;;5066749;28;20054;-47
2020/12/13 12:11:42;;;;;;;24.55;4.85;;;9.20;99.90;;;;;;5065738;28;20135;-48
2020/12/13 12:14:11;;;;;;;29.05;3.40;;;9.20;99.90;;;;;;5065366;28;20028;-49
2020/12/13 12:16:42;;;;;;;26.15;3.88;;;9.20;99.90;;;;;;5077235;28;20640;-49
2020/12/13 12:19:08;;;;;;;21.23;3.20;;;9.20;99.90;;;;;;5084311;28;20028;-50
2020/12/13 12:21:43;;;;;;;22.50;4.13;;;9.20;99.90;;;;;;5080142;28;20079;-49
2020/12/13 12:24:09;;;;;;;31.38;3.78;;;9.30;99.90;;;;;;5074222;28;20036;-50
2020/12/13 12:26:34;;;;;;;25.88;4.75;;;9.30;99.90;;;;;;5082864;28;20456;-51
2020/12/13 12:29:05;;;;;;;24.50;4.60;;;9.30;99.90;;;;;;5069681;28;20478;-49
2020/12/13 12:31:31;;;;;;;20.83;3.75;;;9.40;99.90;;;;;;5085890;28;20543;-49
2020/12/13 12:33:57;;;;;;;19.13;3.55;;;9.30;99.90;;;;;;5082833;28;20032;-51
2020/12/13 12:36:25;;;;;;;26.48;4.63;;;9.30;99.90;;;;;;5083114;28;20104;-47
2020/12/13 12:38:52;;;;;;;30.13;4.35;;;9.30;99.90;;;;;;5076795;28;20042;-47
2020/12/13 12:41:22;;;;;;;32.20;4.25;;;9.30;99.90;;;;;;5085079;28;20515;-49
2020/12/13 12:43:48;;;;;;;20.27;3.47;;;9.40;99.90;;;;;;5079936;28;20175;-47
2020/12/13 12:46:16;;;;;;;31.48;3.67;;;9.40;99.90;;;;;;5086803;28;20097;-48
2020/12/13 12:48:43;;;;;;;36.38;4.88;;;9.30;99.90;;;;;;5071145;28;20024;-48
2020/12/13 12:51:11;;;;;;;29.42;4.18;;;9.30;99.90;;;;;;5064472;28;20379;-47
2020/12/13 12:53:37;;;;;;;39.72;4.57;;;9.40;99.90;;;;;;5065251;28;20029;-47
2020/12/13 12:56:07;;;;;;;22.80;4.20;;;9.40;99.90;;;;;;5045589;28;20032;-48
2020/12/13 12:58:46;;;;;;;18.90;3.25;;;9.40;99.90;;;;;;5064443;28;20430;-49
2020/12/13 13:01:21;;;;;;;16.25;3.63;;;9.40;99.90;;;;;;5067758;28;20024;-47
2020/12/13 13:03:50;;;;;;;32.67;4.55;;;9.40;99.90;;;;;;5049242;28;20772;-49